ADDS METAR Data INFO
IDs: Format: Raw Decoded Include TAF

Data at: 0030 UTC 17 Dec 2017

KOWA 170014Z AUTO 04006KT 7SM OVC007 M02/M03 A3001 RMK AO2
KOWA 162353Z AUTO 05005KT 7SM OVC009 M02/M03 A3000 RMK AO2
KOWA 162334Z AUTO 05004KT 7SM OVC009 M01/M03 A2999 RMK AO2
KOWA 162313Z AUTO 05008KT 10SM OVC009 M01/M03 A2998 RMK AO2
KOWA 162253Z AUTO 03006KT 10SM BKN009 M01/M03 A2997 RMK AO2
KOWA 162233Z AUTO 03005KT 7SM SCT009 M01/M03 A2996 RMK AO2
KOWA 162215Z AUTO 04005KT 10SM CLR M01/M02 A2994 RMK AO2
KOWA 162154Z AUTO 04006KT 10SM CLR 00/M02 A2993 RMK AO2
KOWA 162134Z AUTO 03006KT 10SM CLR 00/M02 A2993 RMK AO2
KOWA 162115Z AUTO 02004KT 10SM CLR 01/M02 A2992 RMK AO2
KOWA 162052Z AUTO 04004KT 10SM CLR 01/M02 A2991 RMK AO2
KOWA 162034Z AUTO 05005KT 10SM CLR 02/M01 A2989 RMK AO2
KOWA 162013Z AUTO 04004KT 10SM CLR 02/M01 A2987 RMK AO2
KOWA 161954Z AUTO 04004KT 10SM CLR 02/M02 A2986 RMK AO2
KOWA 161934Z AUTO 04005KT 10SM CLR 02/M01 A2986 RMK AO2
KOWA 161914Z AUTO 08005KT 10SM CLR 03/M01 A2986 RMK AO2
KOWA 161854Z AUTO 04004KT 10SM CLR 03/M02 A2986 RMK AO2
KOWA 161834Z AUTO 06004KT 10SM CLR 03/M02 A2985 RMK AO2
KOWA 161813Z AUTO 05004KT 10SM CLR 02/M02 A2984 RMK AO2
KOWA 161753Z AUTO 04004KT 10SM CLR 02/M02 A2983 RMK AO2
KOWA 161734Z AUTO 04003KT 10SM CLR 01/M02 A2983 RMK AO2
KOWA 161712Z AUTO 03004KT 10SM CLR 02/M02 A2983 RMK AO2
KOWA 161654Z AUTO 00000KT 10SM CLR 02/M03 A2983 RMK AO2
KOWA 161632Z AUTO 00000KT 10SM CLR 01/M03 A2982 RMK AO2
KOWA 161613Z AUTO 08003KT 10SM CLR 01/M03 A2981 RMK AO2
KOWA 161554Z AUTO 10004KT 10SM CLR 00/M03 A2980 RMK AO2
KOWA 161534Z AUTO 00000KT 10SM CLR M01/M03 A2979 RMK AO2
KOWA 161512Z AUTO 06003KT 10SM CLR M02/M04 A2977 RMK AO2
KOWA 161453Z AUTO 04003KT 10SM CLR M03/M04 A2975 RMK AO2
KOWA 161434Z AUTO 00000KT 10SM CLR M04/M06 A2975 RMK AO2
KOWA 161413Z AUTO 00000KT 10SM CLR M05/M06 A2974 RMK AO2
KOWA 161353Z AUTO 00000KT 10SM CLR M04/M06 A2972 RMK AO2
KOWA 161334Z AUTO 16003KT 10SM CLR M04/M05 A2972 RMK AO2
KOWA 161313Z AUTO 13003KT 10SM CLR M03/M04 A2970 RMK AO2
KOWA 161254Z AUTO 00000KT 10SM CLR M03/M05 A2970 RMK AO2
KOWA 161233Z AUTO 00000KT 10SM SCT095 M02/M04 A2971 RMK AO2
KOWA 161214Z AUTO 00000KT 10SM SCT095 M03/M04 A2969 RMK AO2
KOWA 161152Z AUTO 00000KT 10SM CLR M02/M04 A2968 RMK AO2
KOWA 161133Z AUTO 00000KT 10SM SCT095 M01/M03 A2967 RMK AO2
KOWA 161114Z AUTO 15005KT 10SM BKN095 M01/M03 A2966 RMK AO2
KOWA 161054Z AUTO 15003KT 10SM BKN095 M01/M03 A2966 RMK AO2
KOWA 161034Z AUTO 00000KT 10SM BKN095 M01/M03 A2965 RMK AO2
KOWA 161012Z AUTO 15003KT 10SM SCT095 M01/M03 A2966 RMK AO2
KOWA 160953Z AUTO 00000KT 10SM CLR M01/M03 A2964 RMK AO2
KOWA 160932Z AUTO 16003KT 10SM SCT095 01/M03 A2964 RMK AO2
KOWA 160914Z AUTO 00000KT 10SM BKN095 01/M02 A2964 RMK AO2
KOWA 160852Z AUTO 16003KT 10SM OVC095 01/M02 A2965 RMK AO2
KOWA 160834Z AUTO 16006KT 10SM OVC095 01/M02 A2965 RMK AO2
KOWA 160813Z AUTO 14004KT 10SM BKN095 01/M02 A2964 RMK AO2
KOWA 160754Z AUTO 17004KT 10SM SCT095 01/M02 A2965 RMK AO2
KOWA 160734Z AUTO 17004KT 10SM SCT120 02/M02 A2964 RMK AO2
KOWA 160713Z AUTO 17005KT 10SM BKN120 02/M02 A2963 RMK AO2
KOWA 160655Z AUTO 17007KT 10SM SCT100 02/M02 A2963 RMK AO2
KOWA 160633Z AUTO 15009KT 10SM SCT100 01/M02 A2962 RMK AO2
KOWA 160614Z AUTO 15007KT 10SM CLR 01/M02 A2962 RMK AO2
KOWA 160555Z AUTO 14008KT 10SM CLR 01/M02 A2964 RMK AO2
KOWA 160532Z AUTO 13007KT 10SM SCT065 00/M02 A2966 RMK AO2
KOWA 160514Z AUTO 13008KT 10SM CLR 00/M02 A2966 RMK AO2
KOWA 160455Z AUTO 12007KT 10SM CLR 00/M02 A2967 RMK AO2
KOWA 160433Z AUTO 11007KT 10SM SCT075 00/M02 A2967 RMK AO2
KOWA 160413Z AUTO 12008KT 10SM SCT085 00/M02 A2968 RMK AO2
KOWA 160352Z AUTO 12006KT 10SM SCT070 SCT085 01/M02 A2969 RMK AO2
KOWA 160334Z AUTO 13006KT 10SM SCT075 SCT085 01/M02 A2970 RMK AO2
KOWA 160314Z AUTO 12007KT 10SM BKN085 01/M02 A2970 RMK AO2
KOWA 160252Z AUTO 12006KT 10SM OVC085 01/M02 A2970 RMK AO2
KOWA 160234Z AUTO 13007KT 10SM SCT065 OVC085 00/M02 A2970 RMK AO2
KOWA 160212Z AUTO 13007KT 10SM SCT065 BKN085 01/M02 A2971 RMK AO2
KOWA 160153Z AUTO 13006KT 10SM SCT060 SCT085 01/M02 A2972 RMK AO2
KOWA 160135Z AUTO 14007KT 10SM BKN075 OVC095 00/M02 A2972 RMK AO2
KOWA 160115Z AUTO 13007KT 10SM OVC075 00/M02 A2973 RMK AO2
KOWA 160053Z AUTO 12005KT 10SM OVC075 00/M02 A2974 RMK AO2
KOWA 160034Z AUTO 13004KT 10SM OVC075 00/M02 A2974 RMK AO2
KOWA 160014Z AUTO 14003KT 10SM OVC075 00/M02 A2974 RMK AO2
KOWA 152352Z AUTO 12003KT 10SM OVC085 00/M02 A2975 RMK AO2
KOWA 152334Z AUTO 12003KT 10SM SCT080 BKN095 00/M02 A2975 RMK AO2
KOWA 152315Z AUTO 10003KT 10SM SCT095 M01/M02 A2975 RMK AO2
KOWA 152252Z AUTO 00000KT 10SM CLR 00/M02 A2976 RMK AO2
KOWA 152232Z AUTO 00000KT 10SM CLR 00/M02 A2977 RMK AO2
KOWA 152212Z AUTO 00000KT 10SM SCT018 M01/M02 A2976 RMK AO2
KOWA 152152Z AUTO 00000KT 10SM BKN020 00/M02 A2977 RMK AO2
KOWA 152132Z AUTO 00000KT 10SM OVC020 01/M02 A2977 RMK AO2
KOWA 152113Z AUTO 00000KT 10SM BKN018 01/M02 A2977 RMK AO2
KOWA 152052Z AUTO 00000KT 10SM BKN020 BKN046 01/M02 A2978 RMK AO2
KOWA 152035Z AUTO 00000KT 10SM BKN020 01/M02 A2978 RMK AO2
KOWA 152012Z AUTO 00000KT 10SM SCT020 BKN045 00/M02 A2979 RMK AO2
KOWA 151952Z AUTO 00000KT 10SM BKN023 BKN045 00/M02 A2979 RMK AO2
KOWA 151932Z AUTO 28003KT 10SM -SN SCT010 BKN023 00/M02 A2981 RMK AO2
KOWA 151913Z AUTO 00000KT 10SM BKN010 M01/M02 A2981 RMK AO2
KOWA 151854Z AUTO 00000KT 7SM OVC008 M01/M02 A2982 RMK AO2
KOWA 151832Z AUTO 00000KT 7SM -SN SCT005 OVC011 M01/M03 A2983 RMK AO2
KOWA 151813Z AUTO 00000KT 10SM OVC005 M01/M03 A2984 RMK AO2
KOWA 151754Z AUTO 00000KT 10SM OVC005 M01/M03 A2985 RMK AO2
KOWA 151733Z AUTO 00000KT 10SM OVC005 M02/M03 A2986 RMK AO2
KOWA 151713Z AUTO 27003KT 10SM OVC005 M02/M03 A2986 RMK AO2
KOWA 151652Z AUTO 27003KT 10SM OVC005 M02/M03 A2987 RMK AO2
KOWA 151632Z AUTO 00000KT 10SM OVC005 M02/M03 A2987 RMK AO2
KOWA 151614Z AUTO 29004KT 10SM OVC005 M02/M03 A2987 RMK AO2
KOWA 151554Z AUTO 27004KT 10SM BKN007 OVC011 M02/M03 A2987 RMK AO2
KOWA 151532Z AUTO 28004KT 10SM OVC009 M02/M03 A2987 RMK AO2
KOWA 151513Z AUTO 26003KT 10SM OVC009 M03/M03 A2987 RMK AO2
KOWA 151453Z AUTO 00000KT 10SM OVC011 M03/M03 A2987 RMK AO2
KOWA 151433Z AUTO 25005KT 10SM BKN013 BKN019 OVC034 M03/M04 A2987 RMK AO2
KOWA 151414Z AUTO 24003KT 7SM -SN BKN015 OVC034 M03/M04 A2986 RMK AO2
KOWA 151354Z AUTO 24005KT 3SM -SN OVC015 M03/M04 A2987 RMK AO2
KOWA 151333Z AUTO 23007KT 2 1/2SM -SN SCT011 BKN017 OVC031 M03/M04 A2987 RMK AO2 VIS 2V4
KOWA 151315Z AUTO 23006KT 7SM -SN BKN011 BKN019 OVC023 M03/M04 A2988 RMK AO2
KOWA 151254Z AUTO 22007KT 4SM -SN BKN011 OVC022 M03/M04 A2988 RMK AO2
KOWA 151234Z AUTO 23006KT 7SM -SN BKN011 OVC023 M04/M05 A2988 RMK AO2